Time;durP1;ratioP1;P1;durP2;ratioP2;P2;SDS_P1;SDS_P2;PMS_P1;PMS_P2;Temp;Humidity;BMP_temperature;BMP_pressure;BME280_temperature;BME280_humidity;BME280_pressure;Samples;Min_cycle;Max_cycle;Signal;HPM_P1;HPM_P2
2022/06/20 00:01:23;;;;;;;8.15;1.98;;;17.50;67.10;;;;;;5093633;28;20032;-69
2022/06/20 00:03:50;;;;;;;7.05;1.80;;;17.50;67.00;;;;;;5093635;28;20036;-69
2022/06/20 00:06:19;;;;;;;10.15;1.80;;;17.50;66.70;;;;;;5093509;28;20029;-69
2022/06/20 00:08:47;;;;;;;9.40;1.70;;;17.50;66.30;;;;;;5093335;28;20112;-69
2022/06/20 00:11:21;;;;;;;8.80;1.60;;;17.50;66.20;;;;;;5092514;28;20096;-69
2022/06/20 00:13:51;;;;;;;8.07;1.80;;;17.50;66.30;;;;;;5093621;28;20016;-69
2022/06/20 00:16:18;;;;;;;7.57;1.80;;;17.50;66.30;;;;;;5092419;28;20029;-69
2022/06/20 00:18:45;;;;;;;7.60;1.67;;;17.40;66.40;;;;;;5093447;28;20548;-69
2022/06/20 00:21:13;;;;;;;7.35;1.63;;;17.40;66.50;;;;;;5092801;28;20024;-69
2022/06/20 00:23:39;;;;;;;5.50;1.60;;;17.40;67.60;;;;;;5093343;28;20029;-69
2022/06/20 00:26:05;;;;;;;6.55;1.90;;;17.30;66.50;;;;;;5093274;28;20035;-69
2022/06/20 00:28:31;;;;;;;7.10;1.58;;;17.10;67.10;;;;;;5093348;28;20040;-69
2022/06/20 00:30:57;;;;;;;8.13;1.77;;;17.10;67.60;;;;;;5093262;28;20025;-69
2022/06/20 00:33:22;;;;;;;8.57;1.70;;;17.10;67.80;;;;;;5093361;28;20049;-69
2022/06/20 00:35:48;;;;;;;8.50;1.73;;;17.10;68.00;;;;;;5093208;28;20033;-69
2022/06/20 00:38:22;;;;;;;8.77;1.83;;;17.10;68.00;;;;;;5093196;28;20052;-69
2022/06/20 00:40:57;;;;;;;5.80;1.70;;;17.10;68.10;;;;;;5093275;28;20021;-69
2022/06/20 00:43:35;;;;;;;4.95;1.50;;;17.10;68.10;;;;;;5093336;28;20020;-69
2022/06/20 00:46:07;;;;;;;10.25;1.83;;;17.10;68.00;;;;;;5093040;28;20028;-69
2022/06/20 00:48:42;;;;;;;;;;;17.10;67.80;;;;;;5093579;28;20024;-69
2022/06/20 00:51:23;;;;;;;6.20;1.65;;;17.10;67.50;;;;;;5093078;28;19904;-69
2022/06/20 00:53:57;;;;;;;5.93;1.65;;;17.10;67.80;;;;;;5093081;28;20024;-69
2022/06/20 00:56:35;;;;;;;6.43;2.13;;;17.10;67.90;;;;;;5093105;28;20013;-69
2022/06/20 00:59:11;;;;;;;8.05;1.88;;;17.10;67.80;;;;;;5093050;28;20084;-69
2022/06/20 01:01:40;;;;;;;3.03;1.40;;;17.20;67.30;;;;;;5093131;28;20044;-69
2022/06/20 01:04:15;;;;;;;5.72;1.80;;;17.20;67.30;;;;;;5092851;28;20076;-69
2022/06/20 01:06:49;;;;;;;5.93;1.50;;;17.10;68.10;;;;;;5093118;28;20080;-69
2022/06/20 01:09:18;;;;;;;5.88;1.40;;;17.10;68.40;;;;;;5092793;28;20040;-69
2022/06/20 01:11:53;;;;;;;6.93;1.70;;;17.10;68.20;;;;;;5092912;28;20031;-69
2022/06/20 01:14:34;;;;;;;4.97;1.83;;;17.10;68.40;;;;;;5092834;28;20035;-69
2022/06/20 01:17:26;;;;;;;7.22;1.80;;;16.90;68.80;;;;;;5092981;28;20032;-69
2022/06/20 01:20:21;;;;;;;6.68;2.10;;;16.70;69.30;;;;;;5088976;28;20049;-69
2022/06/20 01:22:56;;;;;;;7.28;2.25;;;16.70;70.10;;;;;;5092901;28;20025;-69
2022/06/20 01:25:36;;;;;;;7.38;2.00;;;16.40;71.00;;;;;;5091671;28;20052;-69
2022/06/20 01:28:05;;;;;;;6.80;2.05;;;16.40;71.40;;;;;;5092805;28;20028;-69
2022/06/20 01:30:34;;;;;;;7.68;1.80;;;16.50;71.20;;;;;;5092825;28;20023;-69
2022/06/20 01:32:59;;;;;;;3.63;1.60;;;16.60;70.70;;;;;;5095287;28;20048;-69
2022/06/20 01:38:13;;;;;;;4.43;1.95;;;16.80;70.40;;;;;;5096493;28;20074;-68
2022/06/20 01:42:18;;;;;;;5.78;1.80;;;16.80;70.40;;;;;;5096330;28;20047;-69
2022/06/20 01:43:31;;;;;;;8.75;2.17;;;16.80;70.50;;;;;;5096426;28;20041;-69
2022/06/20 01:45:58;;;;;;;4.40;1.70;;;16.80;70.60;;;;;;5096139;28;20078;-69
2022/06/20 01:48:29;;;;;;;8.45;1.88;;;16.80;70.50;;;;;;5096139;28;20017;-69
2022/06/20 01:50:54;;;;;;;4.88;1.95;;;16.90;70.40;;;;;;5096277;28;20017;-69
2022/06/20 01:53:31;;;;;;;4.78;1.90;;;17.00;70.20;;;;;;5095087;28;20047;-69
2022/06/20 01:56:00;;;;;;;3.88;1.83;;;17.00;70.00;;;;;;5096105;28;20025;-69
2022/06/20 01:58:28;;;;;;;7.05;1.67;;;17.00;69.70;;;;;;5096021;28;20055;-69
2022/06/20 02:00:55;;;;;;;6.10;2.05;;;17.00;69.80;;;;;;5095944;28;20051;-69
2022/06/20 02:03:21;;;;;;;5.57;1.88;;;16.90;69.90;;;;;;5095912;28;20036;-69
2022/06/20 02:05:52;;;;;;;4.60;2.13;;;16.90;69.80;;;;;;5095763;28;20045;-69
2022/06/20 02:08:22;;;;;;;6.13;2.05;;;17.00;69.90;;;;;;5095858;28;20047;-69
2022/06/20 02:10:55;;;;;;;4.13;2.22;;;16.80;70.60;;;;;;5095670;28;20071;-69
2022/06/20 02:13:24;;;;;;;4.78;2.08;;;16.70;71.40;;;;;;5095763;28;20053;-69
2022/06/20 02:15:53;;;;;;;5.97;2.15;;;16.70;71.30;;;;;;5095700;28;20021;-69
2022/06/20 02:18:20;;;;;;;8.10;2.60;;;16.80;70.90;;;;;;5095623;28;20034;-69
2022/06/20 02:20:49;;;;;;;9.45;2.28;;;16.80;70.50;;;;;;5095593;28;20031;-69
2022/06/20 02:23:23;;;;;;;5.63;1.92;;;16.90;70.20;;;;;;5095593;28;20032;-69
2022/06/20 02:25:51;;;;;;;9.20;2.92;;;16.90;70.00;;;;;;5095445;28;20044;-69
2022/06/20 02:28:26;;;;;;;8.48;2.05;;;16.90;69.80;;;;;;5095346;28;20020;-69
2022/06/20 02:30:52;;;;;;;8.27;2.10;;;16.90;69.70;;;;;;5095443;28;20013;-69
2022/06/20 02:33:25;;;;;;;6.25;2.05;;;16.90;69.60;;;;;;5095487;28;20027;-69
2022/06/20 02:35:52;;;;;;;8.27;1.90;;;16.90;69.40;;;;;;5095491;28;20076;-69
2022/06/20 02:38:20;;;;;;;6.90;1.77;;;16.90;69.40;;;;;;5095228;28;20029;-69
2022/06/20 02:40:47;;;;;;;5.00;1.88;;;16.80;69.30;;;;;;5095231;28;20044;-69
2022/06/20 02:43:17;;;;;;;6.60;1.80;;;16.80;69.40;;;;;;5094933;28;20088;-69
2022/06/20 02:45:45;;;;;;;6.78;2.38;;;16.80;69.50;;;;;;5095102;28;20047;-69
2022/06/20 02:48:12;;;;;;;6.43;2.15;;;16.80;69.50;;;;;;5095116;28;20027;-69
2022/06/20 02:50:48;;;;;;;8.18;1.92;;;16.80;69.30;;;;;;5094996;28;20025;-69
2022/06/20 02:53:23;;;;;;;7.25;1.80;;;16.80;69.10;;;;;;5095015;28;20017;-69
2022/06/20 02:55:51;;;;;;;8.80;2.00;;;16.80;69.00;;;;;;5095027;28;20024;-70
2022/06/20 02:58:21;;;;;;;5.47;2.00;;;16.80;68.90;;;;;;5094835;28;20021;-69
2022/06/20 03:01:05;;;;;;;7.70;1.88;;;16.80;68.70;;;;;;5094824;28;20020;-69
2022/06/20 03:03:36;;;;;;;7.22;1.90;;;16.80;68.60;;;;;;5093725;28;20029;-69
2022/06/20 03:06:08;;;;;;;5.65;2.00;;;16.80;68.60;;;;;;5094803;28;20021;-69
2022/06/20 03:08:34;;;;;;;5.63;1.55;;;16.80;68.50;;;;;;5094736;28;20088;-69
2022/06/20 03:11:04;;;;;;;6.18;1.77;;;16.70;68.40;;;;;;5094639;28;20040;-69
2022/06/20 03:13:30;;;;;;;5.93;1.85;;;16.70;68.40;;;;;;5094778;28;20050;-69
2022/06/20 03:15:57;;;;;;;4.55;1.55;;;16.70;68.60;;;;;;5094485;28;20035;-69
2022/06/20 03:18:23;;;;;;;5.20;1.55;;;16.70;68.50;;;;;;5094477;28;20044;-69
2022/06/20 03:20:49;;;;;;;3.92;1.67;;;16.70;68.40;;;;;;5093325;28;20062;-69
2022/06/20 03:23:15;;;;;;;9.95;1.77;;;16.70;68.50;;;;;;5094362;28;20036;-69
2022/06/20 03:25:41;;;;;;;7.43;2.10;;;16.70;68.40;;;;;;5094213;28;20088;-69
2022/06/20 03:28:25;;;;;;;7.90;1.65;;;16.70;68.30;;;;;;5094210;28;20051;-69
2022/06/20 03:30:52;;;;;;;4.90;1.50;;;16.60;68.30;;;;;;5094274;28;20027;-69
2022/06/20 03:33:21;;;;;;;4.95;1.80;;;16.60;68.70;;;;;;5094177;28;20387;-69
2022/06/20 03:36:00;;;;;;;6.07;1.58;;;16.60;68.80;;;;;;5094121;28;20395;-69
2022/06/20 03:38:26;;;;;;;5.65;1.70;;;16.60;69.00;;;;;;5094244;28;20062;-69
2022/06/20 03:40:52;;;;;;;4.68;1.25;;;16.60;69.10;;;;;;5093993;28;20077;-69
2022/06/20 03:43:23;;;;;;;4.97;1.35;;;16.60;68.90;;;;;;5093989;28;20067;-69
2022/06/20 03:45:58;;;;;;;6.80;2.00;;;16.60;68.90;;;;;;5093864;28;20029;-69
2022/06/20 03:48:31;;;;;;;7.28;1.73;;;16.60;69.80;;;;;;5093936;28;20027;-69
2022/06/20 03:51:10;;;;;;;5.78;1.65;;;16.60;68.90;;;;;;5093856;28;20046;-69
2022/06/20 03:53:58;;;;;;;7.65;1.70;;;16.60;68.60;;;;;;5093838;28;20157;-69
2022/06/20 03:56:30;;;;;;;6.78;1.40;;;16.60;68.40;;;;;;5092999;28;20024;-69
2022/06/20 03:59:16;;;;;;;7.07;1.60;;;16.60;68.90;;;;;;5093888;28;20035;-69
2022/06/20 04:02:03;;;;;;;6.10;1.58;;;16.70;68.30;;;;;;5093710;28;20039;-69
2022/06/20 04:04:54;;;;;;;4.43;1.08;;;16.70;68.20;;;;;;5093584;28;20084;-69
2022/06/20 04:07:36;;;;;;;6.68;1.75;;;16.70;68.00;;;;;;5093548;28;20016;-69
2022/06/20 04:13:40;;;;;;;7.75;1.70;;;16.80;67.90;;;;;;5093675;28;20039;-69
2022/06/20 04:16:11;;;;;;;6.40;1.75;;;16.70;68.20;;;;;;5087217;28;20040;-69
2022/06/20 04:18:43;;;;;;;5.25;1.33;;;16.70;68.40;;;;;;5093417;28;20053;-69
2022/06/20 04:21:23;;;;;;;5.82;2.17;;;16.70;68.30;;;;;;5093427;28;20029;-69
2022/06/20 04:24:06;;;;;;;4.72;1.45;;;16.70;68.20;;;;;;5093551;28;20063;-69
2022/06/20 04:26:43;;;;;;;6.95;1.60;;;16.70;68.20;;;;;;5093368;28;20032;-69
2022/06/20 04:29:33;;;;;;;6.30;1.52;;;16.70;68.40;;;;;;5093313;28;20028;-69
2022/06/20 04:32:31;;;;;;;5.38;1.83;;;16.70;68.60;;;;;;5093324;28;20017;-69
2022/06/20 04:35:22;;;;;;;5.50;2.05;;;16.60;68.90;;;;;;5093453;28;20058;-69
2022/06/20 04:37:53;;;;;;;4.30;1.90;;;16.70;69.40;;;;;;5093313;28;20025;-69
2022/06/20 04:40:22;;;;;;;3.92;2.20;;;16.70;69.50;;;;;;5093243;28;20032;-69
2022/06/20 04:43:03;;;;;;;6.47;1.90;;;16.70;69.40;;;;;;5093197;28;20028;-69
2022/06/20 04:46:01;;;;;;;6.28;1.98;;;16.70;69.60;;;;;;5093105;28;20031;-69
2022/06/20 04:48:27;;;;;;;4.75;1.98;;;16.70;69.40;;;;;;5092990;28;20027;-69
2022/06/20 04:50:56;;;;;;;7.35;2.63;;;16.70;69.30;;;;;;5093093;28;20088;-69
2022/06/20 04:53:29;;;;;;;7.47;2.28;;;16.70;69.50;;;;;;5093090;28;20051;-69
2022/06/20 04:55:57;;;;;;;7.55;1.85;;;16.70;69.60;;;;;;5093114;28;20020;-69
2022/06/20 04:59:01;;;;;;;7.78;1.85;;;16.70;69.70;;;;;;5093014;28;20047;-69
2022/06/20 05:01:31;;;;;;;4.88;2.10;;;16.80;69.70;;;;;;5031263;28;20072;-69
2022/06/20 05:04:05;;;;;;;5.32;1.83;;;16.70;69.90;;;;;;5083532;28;20032;-69
2022/06/20 05:06:35;;;;;;;7.53;1.70;;;16.80;70.00;;;;;;5093099;28;20028;-69
2022/06/20 05:09:06;;;;;;;8.40;1.88;;;16.80;69.80;;;;;;5096636;28;20041;-70
2022/06/20 05:11:44;;;;;;;5.82;1.83;;;16.80;70.10;;;;;;5097100;28;20086;-69
2022/06/20 05:14:26;;;;;;;13.35;2.30;;;16.70;70.30;;;;;;5095824;28;20024;-69
2022/06/20 05:16:53;;;;;;;6.32;1.80;;;16.70;70.30;;;;;;5096903;28;20025;-69
2022/06/20 05:19:28;;;;;;;6.80;2.08;;;16.70;70.50;;;;;;5096743;28;20025;-69
2022/06/20 05:22:00;;;;;;;5.00;1.92;;;16.70;70.50;;;;;;5096786;28;20020;-69
2022/06/20 05:24:33;;;;;;;5.55;2.10;;;16.70;70.20;;;;;;5096625;28;20033;-69
2022/06/20 05:27:06;;;;;;;6.22;2.05;;;16.70;69.90;;;;;;5096787;28;20064;-69
2022/06/20 05:29:33;;;;;;;;;;;16.70;70.20;;;;;;5096965;28;20023;-69
2022/06/20 05:32:05;;;;;;;5.70;2.38;;;16.70;70.20;;;;;;5096504;28;19911;-69
2022/06/20 05:34:33;;;;;;;6.82;2.47;;;16.60;70.90;;;;;;5096528;28;20027;-69
2022/06/20 05:37:12;;;;;;;6.30;2.25;;;16.60;71.10;;;;;;5096425;28;20028;-69
2022/06/20 05:40:03;;;;;;;7.20;2.53;;;16.60;71.20;;;;;;5096507;28;20017;-69
2022/06/20 05:42:29;;;;;;;6.20;2.13;;;16.50;71.80;;;;;;5096357;28;20028;-69
2022/06/20 05:44:54;;;;;;;7.97;2.80;;;16.50;72.00;;;;;;5096202;28;20092;-69
2022/06/20 05:47:22;;;;;;;9.45;2.67;;;16.50;73.10;;;;;;5096236;28;20086;-69
2022/06/20 05:50:06;;;;;;;14.90;3.03;;;16.50;72.60;;;;;;5096184;28;20012;-69
2022/06/20 05:52:33;;;;;;;7.75;3.10;;;16.50;72.40;;;;;;5096180;28;20131;-69
2022/06/20 05:55:16;;;;;;;6.80;2.47;;;16.50;72.50;;;;;;5096064;28;20055;-69
2022/06/20 05:57:45;;;;;;;;;;;16.60;72.30;;;;;;5096497;28;20048;-69
2022/06/20 06:00:18;;;;;;;6.60;2.47;;;16.60;72.20;;;;;;5096022;28;19904;-69
2022/06/20 06:02:48;;;;;;;7.88;2.53;;;16.70;72.20;;;;;;5095993;28;20021;-69
2022/06/20 06:05:19;;;;;;;6.35;2.40;;;16.80;72.10;;;;;;5095853;28;20035;-69
2022/06/20 06:07:48;;;;;;;4.75;2.63;;;16.80;71.80;;;;;;5095916;28;20060;-69
2022/06/20 06:10:40;;;;;;;7.68;2.70;;;16.90;71.80;;;;;;5095587;28;20055;-69
2022/06/20 06:13:23;;;;;;;6.13;2.17;;;17.00;71.10;;;;;;5095832;28;20486;-69
2022/06/20 06:19:00;;;;;;;7.57;2.42;;;17.10;70.40;;;;;;5094737;28;20054;-70
2022/06/20 06:21:27;;;;;;;6.13;2.72;;;17.10;70.20;;;;;;5095651;28;20035;-70
2022/06/20 06:23:53;;;;;;;5.38;2.47;;;17.10;70.10;;;;;;5095581;28;20036;-69
2022/06/20 06:26:19;;;;;;;6.22;2.13;;;17.20;69.80;;;;;;5095448;28;20038;-69
2022/06/20 06:28:48;;;;;;;8.25;2.25;;;17.30;69.80;;;;;;5095401;28;20046;-69
2022/06/20 06:31:31;;;;;;;6.18;2.20;;;17.40;69.70;;;;;;5095425;28;20020;-69
2022/06/20 06:34:25;;;;;;;5.68;1.85;;;17.40;69.20;;;;;;5095537;28;20021;-69
2022/06/20 06:37:05;;;;;;;4.85;1.70;;;17.40;69.10;;;;;;5089587;28;20071;-68
2022/06/20 06:39:37;;;;;;;5.95;1.98;;;17.40;68.50;;;;;;5095278;28;20042;-69
2022/06/20 06:42:08;;;;;;;5.10;2.30;;;17.40;68.20;;;;;;5095249;28;20032;-68
2022/06/20 06:44:40;;;;;;;5.47;1.77;;;17.40;67.80;;;;;;5095141;28;20031;-69
2022/06/20 06:47:17;;;;;;;4.30;1.80;;;17.40;67.80;;;;;;5095194;28;20407;-68
2022/06/20 06:49:49;;;;;;;8.75;2.40;;;17.50;67.60;;;;;;5094020;28;20016;-69
2022/06/20 06:52:32;;;;;;;5.15;1.83;;;17.50;67.80;;;;;;5095086;28;20039;-69
2022/06/20 06:55:45;;;;;;;5.25;2.25;;;17.50;67.90;;;;;;5095029;28;20020;-69
2022/06/20 06:58:22;;;;;;;11.60;2.30;;;17.50;67.50;;;;;;5081667;28;20044;-69
2022/06/20 07:00:57;;;;;;;7.20;2.38;;;17.60;67.90;;;;;;5093917;28;20442;-69
2022/06/20 07:03:28;;;;;;;5.05;2.30;;;17.70;67.50;;;;;;5094824;28;20046;-69
2022/06/20 07:05:59;;;;;;;7.03;1.95;;;17.70;67.30;;;;;;5094710;28;20104;-69
2022/06/20 07:08:32;;;;;;;4.00;1.80;;;17.80;66.80;;;;;;5093763;28;20080;-69
2022/06/20 07:11:24;;;;;;;4.35;2.20;;;17.80;66.20;;;;;;5094505;28;20045;-69
2022/06/20 07:13:54;;;;;;;7.03;2.25;;;17.80;65.80;;;;;;5094571;28;20096;-68
2022/06/20 07:16:39;;;;;;;5.53;2.00;;;17.80;65.90;;;;;;5094485;28;20036;-69
2022/06/20 07:19:07;;;;;;;7.60;1.88;;;17.80;65.60;;;;;;5094601;28;20029;-69
2022/06/20 07:21:33;;;;;;;3.38;2.00;;;17.80;65.60;;;;;;5094445;28;20016;-69
2022/06/20 07:24:08;;;;;;;5.50;2.20;;;17.80;65.80;;;;;;5094240;28;20024;-69
2022/06/20 07:26:57;;;;;;;6.35;2.50;;;17.90;66.00;;;;;;5093262;28;20089;-68
2022/06/20 07:29:27;;;;;;;7.95;2.67;;;17.90;65.90;;;;;;5094225;28;20023;-69
2022/06/20 07:31:59;;;;;;;6.72;2.60;;;17.90;65.90;;;;;;5094294;28;20080;-69
2022/06/20 07:34:36;;;;;;;5.32;2.80;;;17.90;65.70;;;;;;5094286;28;20020;-69
2022/06/20 07:37:16;;;;;;;7.82;2.33;;;17.90;65.60;;;;;;5094092;28;20024;-69
2022/06/20 07:39:58;;;;;;;7.25;2.55;;;17.90;65.70;;;;;;5094120;28;20017;-69
2022/06/20 07:42:36;;;;;;;5.60;2.72;;;17.90;65.20;;;;;;5094076;28;20097;-69
2022/06/20 07:45:28;;;;;;;4.85;2.10;;;18.00;65.40;;;;;;5093917;28;20112;-69
2022/06/20 07:47:58;;;;;;;7.75;2.35;;;18.00;63.60;;;;;;5094025;28;20040;-68
2022/06/20 07:50:33;;;;;;;6.40;2.50;;;18.20;64.00;;;;;;5093873;28;20372;-69
2022/06/20 07:53:17;;;;;;;8.60;2.53;;;18.30;62.80;;;;;;5093955;28;20046;-68
2022/06/20 07:55:49;;;;;;;6.55;2.90;;;18.30;62.40;;;;;;5093951;28;20020;-69
2022/06/20 07:58:23;;;;;;;4.03;2.10;;;18.30;62.70;;;;;;5093768;28;20052;-69
2022/06/20 08:00:53;;;;;;;6.53;1.98;;;18.20;61.70;;;;;;5092835;28;20016;-69
2022/06/20 08:03:24;;;;;;;4.35;2.15;;;18.20;61.50;;;;;;5093668;28;20039;-69
2022/06/20 08:06:00;;;;;;;3.78;2.15;;;18.30;61.60;;;;;;5093585;28;20025;-69
2022/06/20 08:08:42;;;;;;;5.30;2.53;;;18.50;61.70;;;;;;5092767;28;20031;-69
2022/06/20 08:11:42;;;;;;;6.65;2.35;;;18.60;61.40;;;;;;5093443;28;20036;-69
2022/06/20 08:14:20;;;;;;;6.97;2.67;;;18.80;61.70;;;;;;5093603;28;20021;-69
2022/06/20 08:16:49;;;;;;;3.85;2.20;;;18.90;60.10;;;;;;5093657;28;20087;-69
2022/06/20 08:19:15;;;;;;;4.00;2.35;;;18.90;60.00;;;;;;5093474;28;20040;-68
2022/06/20 08:21:53;;;;;;;6.60;2.17;;;19.00;59.90;;;;;;5093431;28;20025;-69
2022/06/20 08:24:24;;;;;;;4.57;1.60;;;19.10;58.70;;;;;;5093350;28;20047;-69
2022/06/20 08:27:05;;;;;;;4.10;1.70;;;19.20;57.80;;;;;;5093377;28;20021;-69
2022/06/20 08:29:54;;;;;;;5.63;1.98;;;19.20;54.30;;;;;;5093293;28;20020;-68
2022/06/20 08:32:43;;;;;;;4.20;1.80;;;19.20;55.40;;;;;;5093324;28;20093;-68
2022/06/20 08:35:19;;;;;;;5.32;2.08;;;19.30;55.30;;;;;;5093151;28;20024;-69
2022/06/20 08:37:49;;;;;;;6.82;2.03;;;19.30;55.40;;;;;;5093275;28;20046;-68
2022/06/20 08:40:37;;;;;;;6.10;2.08;;;19.30;55.50;;;;;;5093264;28;20032;-69
2022/06/20 08:43:24;;;;;;;4.70;2.05;;;19.30;56.00;;;;;;5092880;28;20029;-69
2022/06/20 08:45:58;;;;;;;5.22;2.17;;;19.20;55.70;;;;;;5093148;28;20028;-69
2022/06/20 08:48:42;;;;;;;6.13;2.55;;;19.10;56.00;;;;;;5093192;28;20024;-69
2022/06/20 08:51:17;;;;;;;5.20;1.92;;;19.10;56.40;;;;;;5093276;28;20016;-69
2022/06/20 08:54:16;;;;;;;3.13;2.13;;;19.10;56.30;;;;;;5093301;28;20028;-69
2022/06/20 08:56:55;;;;;;;11.02;2.60;;;19.00;55.30;;;;;;5093174;28;20050;-69
2022/06/20 08:59:48;;;;;;;4.53;2.08;;;19.00;56.00;;;;;;5093179;28;20464;-69
2022/06/20 09:02:21;;;;;;;;;;;19.10;56.00;;;;;;5093494;28;20029;-69
2022/06/20 09:05:11;;;;;;;4.57;2.15;;;19.10;56.10;;;;;;5091942;28;19958;-69
2022/06/20 09:08:00;;;;;;;5.93;2.25;;;19.20;56.20;;;;;;5093008;28;20048;-69
2022/06/20 09:10:48;;;;;;;5.28;2.28;;;19.40;56.00;;;;;;5092725;28;20045;-69
2022/06/20 09:13:51;;;;;;;5.53;2.10;;;19.40;54.90;;;;;;5092977;28;20021;-69
2022/06/20 09:16:56;;;;;;;6.77;2.47;;;19.40;53.70;;;;;;5093166;28;20048;-68
2022/06/20 09:19:27;;;;;;;5.65;2.13;;;19.30;54.30;;;;;;5091962;28;20275;-69
2022/06/20 09:22:12;;;;;;;6.47;2.33;;;19.30;53.90;;;;;;5093030;28;20032;-69
2022/06/20 09:25:11;;;;;;;7.20;2.08;;;19.40;53.80;;;;;;5092820;28;20024;-69
2022/06/20 09:27:53;;;;;;;4.00;1.92;;;19.50;51.60;;;;;;5092916;28;20017;-69
2022/06/20 09:30:32;;;;;;;7.03;2.33;;;19.40;52.60;;;;;;5092914;28;20027;-69
2022/06/20 09:33:29;;;;;;;5.13;2.10;;;19.50;52.80;;;;;;5092726;28;20017;-69
2022/06/20 09:36:00;;;;;;;6.40;2.20;;;19.60;52.30;;;;;;5092862;28;20498;-69
2022/06/20 09:38:40;;;;;;;5.75;2.28;;;19.80;52.10;;;;;;5092708;28;20024;-69
2022/06/20 09:41:27;;;;;;;5.03;2.20;;;20.00;52.00;;;;;;5092714;28;20035;-69
2022/06/20 09:44:04;;;;;;;5.63;1.90;;;20.10;52.40;;;;;;5092779;28;20032;-69
2022/06/20 09:46:46;;;;;;;6.20;1.95;;;20.20;51.00;;;;;;5092673;28;20084;-69
2022/06/20 09:49:25;;;;;;;6.40;2.50;;;20.20;50.60;;;;;;5090566;28;20102;-69
2022/06/20 09:52:13;;;;;;;6.35;2.30;;;20.20;51.10;;;;;;5092619;28;20021;-69
2022/06/20 09:54:53;;;;;;;8.93;2.65;;;20.30;51.30;;;;;;5094595;28;20115;-69
2022/06/20 09:57:42;;;;;;;10.30;2.53;;;20.40;50.90;;;;;;5096119;28;20020;-69
2022/06/20 10:00:24;;;;;;;6.68;2.47;;;20.40;50.80;;;;;;5096084;28;20026;-69
2022/06/20 10:03:04;;;;;;;7.10;2.30;;;20.40;50.70;;;;;;5096099;28;20027;-69
2022/06/20 10:05:53;;;;;;;6.30;2.47;;;20.50;50.20;;;;;;5095996;28;20020;-69
2022/06/20 10:08:34;;;;;;;6.68;2.30;;;20.60;49.30;;;;;;5096045;28;20027;-69
2022/06/20 10:11:12;;;;;;;7.60;2.33;;;20.70;49.70;;;;;;5095777;28;20083;-69
2022/06/20 10:14:00;;;;;;;5.32;2.20;;;20.80;48.40;;;;;;5094735;28;20044;-69
2022/06/20 10:16:48;;;;;;;7.68;2.80;;;20.80;49.50;;;;;;5095865;28;20039;-69
2022/06/20 10:19:42;;;;;;;7.80;2.65;;;20.80;49.20;;;;;;5095753;28;20031;-69
2022/06/20 10:22:20;;;;;;;7.78;2.50;;;21.00;49.20;;;;;;5095686;28;20039;-69
2022/06/20 10:25:07;;;;;;;6.70;2.38;;;21.10;49.40;;;;;;5095549;28;20415;-69
2022/06/20 10:27:45;;;;;;;5.53;1.95;;;21.20;48.60;;;;;;5095651;28;20016;-69
2022/06/20 10:30:18;;;;;;;4.88;2.45;;;21.30;48.10;;;;;;5094581;28;20088;-69
2022/06/20 10:32:55;;;;;;;5.93;2.00;;;21.30;47.20;;;;;;5095541;28;20040;-69
2022/06/20 10:35:55;;;;;;;3.85;2.30;;;21.50;46.20;;;;;;5095562;28;20028;-69
2022/06/20 10:38:45;;;;;;;4.85;2.20;;;21.50;47.00;;;;;;5095421;28;20020;-69
2022/06/20 10:41:40;;;;;;;4.03;2.35;;;21.40;46.20;;;;;;5095548;28;20035;-69
2022/06/20 10:44:28;;;;;;;6.80;2.20;;;21.30;46.40;;;;;;5092169;28;20032;-69
2022/06/20 10:47:06;;;;;;;8.82;2.45;;;21.40;47.70;;;;;;5095277;28;20458;-69
2022/06/20 10:49:56;;;;;;;7.03;2.50;;;21.50;47.40;;;;;;5095253;28;20027;-69
2022/06/20 10:52:36;;;;;;;7.45;2.10;;;21.50;46.60;;;;;;5094131;28;20036;-69
2022/06/20 10:55:33;;;;;;;6.75;2.38;;;21.50;47.50;;;;;;5095093;28;20028;-69
2022/06/20 10:57:58;;;;;;;4.50;2.40;;;21.40;46.90;;;;;;5095021;28;20088;-69
2022/06/20 11:00:27;;;;;;;5.57;2.00;;;21.40;47.20;;;;;;5094978;28;20031;-70
2022/06/20 11:03:15;;;;;;;5.38;2.30;;;21.40;47.40;;;;;;5094892;28;20430;-69
2022/06/20 11:06:03;;;;;;;7.82;2.40;;;21.50;48.70;;;;;;5094416;28;20074;-71
2022/06/20 11:08:37;;;;;;;5.75;2.30;;;21.60;48.70;;;;;;5093804;28;20111;-69
2022/06/20 11:11:13;;;;;;;7.53;2.65;;;21.60;46.90;;;;;;5094697;28;20044;-69
2022/06/20 11:13:41;;;;;;;6.80;2.80;;;21.60;47.50;;;;;;5094881;28;20024;-69
2022/06/20 11:16:31;;;;;;;4.95;2.08;;;21.60;46.70;;;;;;5094768;28;20115;-69
2022/06/20 11:19:16;;;;;;;3.97;2.40;;;21.60;46.90;;;;;;5094618;28;20037;-70
2022/06/20 11:22:01;;;;;;;6.95;2.13;;;21.70;46.30;;;;;;5094535;28;20506;-69
2022/06/20 11:24:55;;;;;;;9.55;2.13;;;21.80;47.80;;;;;;5094568;28;20088;-69
2022/06/20 11:28:00;;;;;;;7.05;2.28;;;22.00;47.70;;;;;;5094439;28;20046;-69
2022/06/20 11:31:13;;;;;;;4.97;2.00;;;22.10;47.00;;;;;;5070823;28;20088;-69
2022/06/20 11:36:46;;;;;;;4.35;1.85;;;22.00;45.40;;;;;;5094528;28;19911;-70
2022/06/20 11:39:39;;;;;;;5.32;2.08;;;22.00;46.00;;;;;;5063057;28;20044;-69
2022/06/20 11:42:13;;;;;;;3.03;1.90;;;22.20;44.80;;;;;;5094286;28;20023;-69
2022/06/20 11:44:53;;;;;;;5.03;1.70;;;22.20;44.10;;;;;;5094145;28;20024;-69
2022/06/20 11:47:31;;;;;;;5.32;1.95;;;22.30;43.10;;;;;;5092978;28;20024;-69
2022/06/20 11:50:13;;;;;;;5.25;1.92;;;22.30;44.20;;;;;;5094148;28;20088;-69
2022/06/20 11:52:52;;;;;;;6.25;1.98;;;22.30;43.80;;;;;;5093969;28;20048;-69
2022/06/20 11:55:33;;;;;;;4.75;1.65;;;22.30;44.80;;;;;;5093888;28;20025;-69
2022/06/20 11:58:10;;;;;;;3.42;1.58;;;22.30;43.30;;;;;;5093895;28;20084;-69
2022/06/20 12:00:52;;;;;;;7.57;2.08;;;22.30;43.20;;;;;;5093751;28;20122;-69
2022/06/20 12:03:40;;;;;;;6.00;2.47;;;22.30;43.60;;;;;;5092909;28;20031;-69
2022/06/20 12:06:21;;;;;;;4.75;1.73;;;22.30;42.70;;;;;;5093605;28;20450;-69
2022/06/20 12:09:20;;;;;;;4.22;2.08;;;22.20;42.90;;;;;;5093707;28;20076;-69
2022/06/20 12:12:24;;;;;;;6.75;1.70;;;22.10;42.30;;;;;;5093087;28;20056;-69
2022/06/20 12:15:25;;;;;;;7.95;1.70;;;21.90;42.40;;;;;;5080151;28;20036;-69
2022/06/20 12:18:06;;;;;;;4.88;1.73;;;21.90;42.60;;;;;;5088304;28;20043;-69
2022/06/20 12:23:43;;;;;;;5.72;1.55;;;22.20;42.00;;;;;;5093694;28;20043;-69
2022/06/20 12:26:35;;;;;;;4.68;1.75;;;22.40;41.20;;;;;;5092811;28;20082;-69
2022/06/20 12:29:05;;;;;;;3.30;1.27;;;22.40;40.10;;;;;;5091892;28;20100;-69
2022/06/20 12:31:36;;;;;;;5.18;1.65;;;22.50;41.10;;;;;;5093358;28;20024;-69
2022/06/20 12:34:08;;;;;;;6.25;1.70;;;22.60;41.90;;;;;;5093354;28;20042;-69
2022/06/20 12:36:48;;;;;;;5.68;1.52;;;22.70;42.00;;;;;;5093346;28;20028;-69
2022/06/20 12:39:21;;;;;;;1.77;1.35;;;22.70;40.90;;;;;;5093272;28;20033;-69
2022/06/20 12:41:53;;;;;;;2.30;1.38;;;22.60;40.80;;;;;;5093271;28;20021;-69
2022/06/20 12:44:48;;;;;;;2.67;1.50;;;22.60;40.80;;;;;;5093265;28;20020;-70
2022/06/20 12:47:33;;;;;;;3.50;1.35;;;22.70;40.10;;;;;;5093210;28;20021;-70
2022/06/20 12:50:18;;;;;;;6.07;1.80;;;22.70;40.90;;;;;;5093187;28;20024;-69
2022/06/20 12:52:50;;;;;;;4.38;1.73;;;22.60;40.80;;;;;;5093181;28;20051;-70
2022/06/20 12:55:25;;;;;;;4.80;1.67;;;22.60;40.90;;;;;;5093109;28;20021;-69
2022/06/20 12:58:13;;;;;;;5.63;1.85;;;22.70;41.60;;;;;;5093129;28;20028;-70
2022/06/20 13:00:50;;;;;;;6.78;1.63;;;22.80;42.00;;;;;;5093122;28;20047;-69
2022/06/20 13:03:31;;;;;;;4.53;1.70;;;22.90;41.80;;;;;;5093219;28;20029;-69
2022/06/20 13:06:24;;;;;;;7.82;1.98;;;22.90;40.60;;;;;;5092938;28;20044;-70
2022/06/20 13:09:34;;;;;;;6.63;2.13;;;22.90;40.60;;;;;;5093026;28;20038;-69
2022/06/20 13:12:12;;;;;;;4.00;1.75;;;22.90;41.70;;;;;;5093026;28;20053;-69
2022/06/20 13:15:13;;;;;;;5.25;1.67;;;23.00;41.40;;;;;;5092899;28;20016;-70
2022/06/20 13:18:10;;;;;;;5.45;1.70;;;23.20;42.50;;;;;;5092902;28;20040;-68
2022/06/20 13:20:51;;;;;;;3.95;1.83;;;23.30;41.30;;;;;;5092892;28;20025;-68
2022/06/20 13:23:31;;;;;;;4.90;1.92;;;23.40;40.90;;;;;;5092795;28;20031;-68
2022/06/20 13:26:11;;;;;;;6.00;2.08;;;23.50;41.00;;;;;;5092723;28;20029;-68
2022/06/20 13:29:01;;;;;;;5.53;2.05;;;23.60;41.00;;;;;;5094759;28;20021;-68
2022/06/20 13:31:35;;;;;;;6.43;2.00;;;23.70;39.80;;;;;;5096772;28;20464;-68
2022/06/20 13:34:20;;;;;;;5.05;1.67;;;23.50;39.10;;;;;;5096564;28;20024;-69
2022/06/20 13:36:54;;;;;;;6.68;2.08;;;23.50;39.00;;;;;;5096685;28;20434;-68
2022/06/20 13:39:32;;;;;;;5.18;1.70;;;23.30;39.60;;;;;;5096587;28;20028;-68
2022/06/20 13:42:20;;;;;;;4.50;1.92;;;23.40;40.00;;;;;;5096409;28;20039;-69
2022/06/20 13:45:53;;;;;;;6.55;2.17;;;23.50;40.70;;;;;;5096288;28;20073;-68
2022/06/20 13:48:37;;;;;;;5.82;1.90;;;23.40;39.40;;;;;;5022563;28;20062;-68
2022/06/20 13:51:12;;;;;;;3.97;1.83;;;23.30;40.10;;;;;;5090559;28;20135;-68
2022/06/20 13:54:03;;;;;;;6.85;2.13;;;23.40;41.20;;;;;;5096270;28;20021;-68
2022/06/20 13:56:52;;;;;;;5.63;2.10;;;23.60;40.40;;;;;;5095183;28;20077;-68
2022/06/20 13:59:30;;;;;;;6.15;1.75;;;23.60;39.40;;;;;;5096140;28;20055;-68